Curitibanos, Brazil
Current Conditions -  °F | °C
As of 5:00 PM on Tuesday 27 Jan 2015 (Local Time) from SBNF Reporting Station
Few Clouds Few Clouds  
Wind Chill: 86°   Ceiling: Unl
Heat Index: 99°   Visibility: 6mi
Dew Point: 79°   Wind: 12mph
Humidity: 79%   Direction: 10°N
Pressure: 29.83"   Gusts: NA
Location:  27.29°S, 50.58°W
Report Text: SBNF 271900Z 01010KT 9999 FEW015 FEW030TCU 30/26 Q1010
Loading
Personal Weather Stations






























Interactive Weather Map New forecast layout! Learn more

10-Day Weather Forecast

Advertisements
Track Severe Weather on mobile